createdAt,value
2019-04-16T00:01:21.133Z,10.00
2019-04-16T00:03:55.500Z,9.90
2019-04-16T00:06:46.788Z,9.80
2019-04-16T00:09:34.732Z,9.70
2019-04-16T00:12:26.044Z,9.60
2019-04-16T00:14:55.932Z,9.60
2019-04-16T00:17:25.350Z,9.40
2019-04-16T00:19:56.143Z,9.40
2019-04-16T00:22:31.718Z,9.40
2019-04-16T00:25:01.076Z,9.30
2019-04-16T00:27:31.537Z,9.30
2019-04-16T00:30:19.952Z,9.30
2019-04-16T00:33:10.681Z,9.20
2019-04-16T00:38:54.148Z,9.20
2019-04-16T00:41:43.059Z,9.20
2019-04-16T00:47:40.542Z,9.10
2019-04-16T00:50:28.953Z,9.10
2019-04-16T00:59:05.222Z,9.00
2019-04-16T01:01:53.620Z,8.90
2019-04-16T01:10:22.956Z,8.70
2019-04-16T01:13:04.303Z,8.70
2019-04-16T01:15:44.927Z,8.60
2019-04-16T01:18:25.768Z,8.50
2019-04-16T01:21:06.566Z,8.40
2019-04-16T01:23:49.370Z,8.40
2019-04-16T01:26:30.532Z,8.30
2019-04-16T01:29:13.230Z,8.30
2019-04-16T01:32:12.815Z,8.30
2019-04-16T01:35:13.045Z,8.20
2019-04-16T01:38:10.776Z,8.20
2019-04-16T01:40:57.072Z,8.10
2019-04-16T01:43:37.908Z,8.10
2019-04-16T01:46:19.412Z,8.00
2019-04-16T01:49:00.283Z,7.90
2019-04-16T01:51:29.670Z,7.80
2019-04-16T01:53:59.045Z,7.90
2019-04-16T01:56:29.103Z,7.80
2019-04-16T01:58:58.630Z,7.80
2019-04-16T02:01:27.976Z,7.70
2019-04-16T02:03:57.388Z,7.70
2019-04-16T02:06:26.702Z,7.70
2019-04-16T02:08:56.121Z,7.70
2019-04-16T02:11:25.499Z,7.60
2019-04-16T02:13:54.834Z,7.60
2019-04-16T02:16:25.230Z,7.50
2019-04-16T02:18:55.347Z,7.50
2019-04-16T02:21:24.668Z,7.50
2019-04-16T02:23:53.969Z,7.50
2019-04-16T02:26:24.132Z,7.50
2019-04-16T02:28:53.679Z,7.40
2019-04-16T02:31:24.713Z,7.40
2019-04-16T02:33:54.101Z,7.40
2019-04-16T02:36:23.440Z,7.30
2019-04-16T02:38:53.668Z,7.30
2019-04-16T02:41:24.424Z,7.30
2019-04-16T02:43:54.051Z,7.30
2019-04-16T02:46:23.399Z,7.30
2019-04-16T02:48:52.715Z,7.20
2019-04-16T02:51:41.348Z,7.20
2019-04-16T02:54:34.023Z,7.20
2019-04-16T02:57:18.634Z,7.20
2019-04-16T02:59:48.422Z,7.20
2019-04-16T03:02:53.614Z,7.20
2019-04-16T03:05:41.602Z,7.20
2019-04-16T03:08:10.902Z,7.20
2019-04-16T03:10:41.760Z,7.10
2019-04-16T03:13:11.467Z,7.10
2019-04-16T03:15:58.280Z,7.10
2019-04-16T03:18:46.939Z,7.10
2019-04-16T03:21:14.739Z,7.00
2019-04-16T03:23:44.084Z,7.00
2019-04-16T03:26:16.387Z,7.00
2019-04-16T03:28:44.472Z,7.00
2019-04-16T03:31:20.333Z,6.90
2019-04-16T03:33:50.497Z,6.90
2019-04-16T03:36:15.892Z,6.80
2019-04-16T03:38:45.203Z,6.80
2019-04-16T03:41:14.682Z,6.80
2019-04-16T03:43:44.098Z,6.80
2019-04-16T03:46:14.161Z,6.80
2019-04-16T03:48:43.755Z,6.80
2019-04-16T03:51:13.101Z,6.70
2019-04-16T03:53:42.437Z,6.70
2019-04-16T03:56:11.788Z,6.60
2019-04-16T03:58:41.159Z,6.60
2019-04-16T04:01:10.528Z,6.60
2019-04-16T04:03:39.901Z,6.50
2019-04-16T04:06:09.428Z,6.50
2019-04-16T04:08:39.115Z,6.50
2019-04-16T04:11:10.171Z,6.50
2019-04-16T04:13:39.533Z,6.50
2019-04-16T04:16:09.284Z,6.40
2019-04-16T04:18:42.953Z,6.40
2019-04-16T04:21:09.763Z,6.30
2019-04-16T04:23:45.503Z,6.30
2019-04-16T04:26:14.844Z,6.30
2019-04-16T04:28:44.223Z,6.30
2019-04-16T04:31:13.512Z,6.30
2019-04-16T04:33:43.183Z,6.30
2019-04-16T04:36:12.644Z,6.20
2019-04-16T04:38:41.948Z,6.20
2019-04-16T04:41:11.280Z,6.30
2019-04-16T04:43:40.589Z,6.30
2019-04-16T04:46:14.493Z,6.30
2019-04-16T04:48:41.127Z,6.30
2019-04-16T04:51:10.514Z,6.20
2019-04-16T04:53:39.874Z,6.20
2019-04-16T04:56:09.638Z,6.30
2019-04-16T04:58:39.011Z,6.30
2019-04-16T05:01:12.041Z,6.30
2019-04-16T05:03:56.250Z,6.40
2019-04-16T05:06:28.845Z,6.50
2019-04-16T05:09:00.385Z,6.60
2019-04-16T05:11:29.303Z,7.00
2019-04-16T05:13:58.662Z,7.50
2019-04-16T05:16:27.980Z,7.90
2019-04-16T05:18:57.319Z,8.40
2019-04-16T05:21:26.715Z,8.80
2019-04-16T05:23:57.587Z,9.20
2019-04-16T05:26:27.163Z,9.60
2019-04-16T05:28:58.103Z,10.00
2019-04-16T05:31:27.461Z,10.30
2019-04-16T05:34:00.628Z,10.50
2019-04-16T05:36:27.865Z,10.60
2019-04-16T05:38:57.493Z,10.90
2019-04-16T05:41:26.839Z,10.90
2019-04-16T05:44:00.834Z,11.00
2019-04-16T05:46:27.531Z,11.00
2019-04-16T05:48:56.875Z,11.00
2019-04-16T05:51:28.507Z,11.10
2019-04-16T05:53:59.767Z,11.20
2019-04-16T05:56:36.998Z,11.40
2019-04-16T05:59:06.494Z,12.00
2019-04-16T06:01:46.307Z,12.80
2019-04-16T06:04:15.746Z,13.60
2019-04-16T06:06:45.081Z,14.50
2019-04-16T06:09:14.773Z,15.50
2019-04-16T06:11:44.336Z,16.40
2019-04-16T06:14:31.893Z,17.30
2019-04-16T06:17:25.449Z,18.20
2019-04-16T06:20:00.081Z,19.00
2019-04-16T06:22:48.356Z,19.70
2019-04-16T06:25:51.813Z,20.40
2019-04-16T06:28:38.316Z,21.20
2019-04-16T06:31:26.659Z,21.80
2019-04-16T06:34:13.364Z,22.40
2019-04-16T06:37:04.484Z,23.00
2019-04-16T06:40:04.735Z,23.50
2019-04-16T06:42:54.103Z,24.10
2019-04-16T06:45:37.985Z,24.50
2019-04-16T06:48:13.058Z,25.00
2019-04-16T06:51:00.303Z,25.30
2019-04-16T06:53:44.652Z,25.50
2019-04-16T06:56:32.920Z,25.80
2019-04-16T06:59:08.399Z,26.00
2019-04-16T07:02:10.554Z,26.20
2019-04-16T07:05:04.729Z,26.30
2019-04-16T07:07:47.159Z,26.30
2019-04-16T07:10:18.897Z,26.20
2019-04-16T07:12:48.313Z,25.90
2019-04-16T07:15:22.809Z,25.50
2019-04-16T07:17:48.941Z,25.00
2019-04-16T07:20:18.270Z,24.90
2019-04-16T07:22:52.648Z,25.00
2019-04-16T07:25:19.136Z,25.10
2019-04-16T07:27:58.440Z,25.30
2019-04-16T07:30:46.740Z,25.50
2019-04-16T07:33:34.384Z,25.60
2019-04-16T07:36:12.612Z,25.20
2019-04-16T07:38:59.935Z,24.80
2019-04-16T07:41:51.283Z,24.70
2019-04-16T07:44:45.352Z,24.70
2019-04-16T07:47:52.505Z,24.70
2019-04-16T07:50:40.830Z,25.00
2019-04-16T07:53:20.736Z,25.50
2019-04-16T07:55:52.526Z,25.60
2019-04-16T07:58:21.921Z,25.60
2019-04-16T08:00:51.349Z,25.60
2019-04-16T08:03:23.643Z,25.90
2019-04-16T08:05:51.765Z,26.30
2019-04-16T08:08:24.316Z,26.50
2019-04-16T08:10:52.197Z,26.80
2019-04-16T08:13:22.490Z,26.40
2019-04-16T08:15:51.832Z,26.50
2019-04-16T08:18:21.228Z,26.40
2019-04-16T08:21:01.223Z,25.70
2019-04-16T08:23:42.869Z,25.50
2019-04-16T08:26:13.812Z,25.30
2019-04-16T08:28:43.319Z,25.30
2019-04-16T08:31:19.190Z,25.60
2019-04-16T08:33:48.588Z,26.00
2019-04-16T08:36:17.968Z,26.20
2019-04-16T08:38:47.308Z,26.10
2019-04-16T08:41:21.166Z,25.90
2019-04-16T08:43:47.867Z,26.10
2019-04-16T08:46:17.222Z,26.60
2019-04-16T08:48:49.243Z,26.60
2019-04-16T08:51:29.712Z,26.40
2019-04-16T08:53:48.880Z,25.90
2019-04-16T08:56:18.288Z,26.20
2019-04-16T08:58:47.613Z,26.40
2019-04-16T09:01:23.346Z,26.40
2019-04-16T09:03:51.075Z,26.20
2019-04-16T09:06:22.339Z,26.20
2019-04-16T09:09:24.336Z,26.30
2019-04-16T09:11:55.010Z,26.50
2019-04-16T09:14:25.896Z,26.70
2019-04-16T09:17:20.188Z,26.80
2019-04-16T09:20:09.943Z,26.50
2019-04-16T09:22:48.994Z,26.90
2019-04-16T09:25:28.128Z,27.40
2019-04-16T09:28:07.273Z,27.80
2019-04-16T09:30:52.421Z,27.70
2019-04-16T09:33:43.747Z,28.10
2019-04-16T09:36:38.526Z,28.60
2019-04-16T09:39:21.180Z,29.00
2019-04-16T09:41:52.109Z,28.90
2019-04-16T09:44:21.484Z,28.90
2019-04-16T09:46:52.154Z,29.10
2019-04-16T09:49:21.788Z,29.20
2019-04-16T09:51:51.297Z,29.20
2019-04-16T09:54:20.741Z,29.30
2019-04-16T09:56:50.099Z,29.20
2019-04-16T09:59:33.109Z,28.70
2019-04-16T10:02:12.117Z,29.40
2019-04-16T10:04:41.517Z,30.30
2019-04-16T10:07:10.825Z,30.80
2019-04-16T10:09:40.191Z,31.30
2019-04-16T10:12:09.648Z,31.30
2019-04-16T10:14:39.029Z,30.50
2019-04-16T10:17:08.433Z,30.80
2019-04-16T10:19:42.950Z,31.00
2019-04-16T10:22:08.937Z,30.70
2019-04-16T10:24:55.766Z,30.80
2019-04-16T10:27:39.575Z,30.30
2019-04-16T10:30:21.906Z,29.10
2019-04-16T10:32:51.406Z,29.20
2019-04-16T10:35:20.778Z,29.00
2019-04-16T10:37:50.157Z,28.70
2019-04-16T10:40:27.517Z,27.80
2019-04-16T10:43:16.140Z,28.10
2019-04-16T10:46:09.484Z,27.60
2019-04-16T10:48:51.484Z,27.60
2019-04-16T10:51:34.110Z,27.50
2019-04-16T10:54:16.670Z,27.90
2019-04-16T10:57:06.605Z,27.80
2019-04-16T10:59:38.869Z,27.30
2019-04-16T11:02:38.944Z,26.40
2019-04-16T11:05:33.748Z,25.20
2019-04-16T11:08:04.257Z,23.90
2019-04-16T11:10:34.894Z,22.70
2019-04-16T11:13:06.080Z,22.00
2019-04-16T11:15:35.876Z,21.90
2019-04-16T11:18:05.913Z,21.80
2019-04-16T11:20:35.276Z,21.60
2019-04-16T11:23:07.036Z,21.50
2019-04-16T11:25:35.916Z,21.40
2019-04-16T11:28:05.377Z,21.20
2019-04-16T11:30:37.553Z,21.20
2019-04-16T11:33:07.002Z,21.30
2019-04-16T11:35:36.405Z,21.20
2019-04-16T11:38:05.902Z,21.10
2019-04-16T11:40:35.347Z,21.10
2019-04-16T11:43:04.892Z,21.30
2019-04-16T11:45:34.323Z,21.30
2019-04-16T11:48:03.746Z,21.40
2019-04-16T11:50:36.029Z,21.50
2019-04-16T11:53:04.279Z,21.50
2019-04-16T11:55:33.659Z,21.20
2019-04-16T11:58:04.447Z,21.10
2019-04-16T12:00:53.750Z,21.00
2019-04-16T12:03:37.484Z,21.10
2019-04-16T12:06:28.437Z,21.20
2019-04-16T12:09:12.799Z,21.30
2019-04-16T12:11:50.457Z,21.40
2019-04-16T12:14:32.213Z,21.30
2019-04-16T12:17:03.913Z,21.30
2019-04-16T12:19:55.365Z,21.40
2019-04-16T12:22:31.797Z,21.30
2019-04-16T12:25:23.157Z,21.10
2019-04-16T12:28:20.609Z,21.00
2019-04-16T12:31:07.347Z,21.00
2019-04-16T12:34:02.128Z,21.00
2019-04-16T12:36:53.437Z,21.00
2019-04-16T12:39:47.853Z,21.10
2019-04-16T12:42:24.604Z,21.20
2019-04-16T12:45:00.698Z,21.20
2019-04-16T12:47:40.648Z,21.00
2019-04-16T12:50:17.440Z,21.00
2019-04-16T12:53:00.712Z,21.30
2019-04-16T12:55:51.857Z,21.20
2019-04-16T12:58:50.639Z,21.20
2019-04-16T13:01:28.001Z,21.20
2019-04-16T13:04:01.791Z,21.30
2019-04-16T13:06:59.368Z,21.30
2019-04-16T13:09:53.655Z,21.30
2019-04-16T13:12:38.021Z,21.40
2019-04-16T13:15:31.538Z,21.50
2019-04-16T13:18:07.134Z,21.70
2019-04-16T13:21:05.817Z,21.80
2019-04-16T13:23:54.599Z,21.90
2019-04-16T13:26:32.373Z,22.00
2019-04-16T13:29:05.028Z,22.10
2019-04-16T13:31:36.398Z,22.20
2019-04-16T13:34:05.694Z,21.90
2019-04-16T13:36:35.067Z,21.60
2019-04-16T13:39:23.488Z,21.50
2019-04-16T13:41:52.949Z,21.50
2019-04-16T13:44:24.113Z,21.60
2019-04-16T13:46:53.505Z,21.70
2019-04-16T13:49:31.714Z,21.90
2019-04-16T13:52:01.751Z,22.00
2019-04-16T13:54:52.744Z,22.00
2019-04-16T13:57:22.950Z,22.00
2019-04-16T14:00:04.946Z,22.10
2019-04-16T14:02:52.056Z,22.00
2019-04-16T14:05:21.623Z,21.90
2019-04-16T14:07:51.044Z,21.80
2019-04-16T14:10:20.550Z,21.80
2019-04-16T14:12:50.047Z,21.80
2019-04-16T14:15:31.644Z,21.80
2019-04-16T14:17:53.300Z,21.90
2019-04-16T14:20:22.580Z,22.10
2019-04-16T14:22:53.575Z,22.20
2019-04-16T14:25:23.087Z,22.00
2019-04-16T14:27:55.476Z,21.90
2019-04-16T14:30:28.040Z,21.90
2019-04-16T14:32:57.456Z,22.00
2019-04-16T14:35:33.359Z,22.00
2019-04-16T14:37:59.778Z,21.90
2019-04-16T14:40:29.916Z,21.80
2019-04-16T14:42:59.242Z,21.90
2019-04-16T14:45:57.466Z,21.90
2019-04-16T14:48:16.897Z,22.00
2019-04-16T14:50:46.227Z,22.20
2019-04-16T14:53:28.260Z,22.20
2019-04-16T14:56:02.486Z,22.20
2019-04-16T14:58:45.941Z,22.20
2019-04-16T15:01:46.111Z,22.40
2019-04-16T15:04:27.189Z,22.50
2019-04-16T15:07:13.865Z,22.60
2019-04-16T15:10:10.039Z,22.60
2019-04-16T15:13:04.344Z,22.40
2019-04-16T15:15:39.531Z,22.30
2019-04-16T15:18:26.927Z,22.10
2019-04-16T15:21:21.184Z,22.10
2019-04-16T15:24:07.914Z,21.90
2019-04-16T15:27:01.068Z,21.90
2019-04-16T15:29:42.699Z,21.80
2019-04-16T15:32:39.757Z,21.70
2019-04-16T15:35:14.139Z,21.90
2019-04-16T15:37:57.996Z,21.90
2019-04-16T15:40:33.460Z,21.80
2019-04-16T15:43:31.277Z,21.60
2019-04-16T15:46:26.037Z,21.60
2019-04-16T15:49:25.921Z,21.60
2019-04-16T15:52:09.139Z,21.70
2019-04-16T15:55:07.653Z,21.80
2019-04-16T15:57:49.078Z,21.80
2019-04-16T16:00:49.473Z,21.80
2019-04-16T16:03:36.395Z,21.70
2019-04-16T16:06:12.401Z,21.60
2019-04-16T16:09:13.125Z,21.50
2019-04-16T16:12:00.391Z,21.30
2019-04-16T16:14:33.446Z,21.20
2019-04-16T16:17:00.957Z,21.10
2019-04-16T16:19:30.316Z,21.00
2019-04-16T16:21:59.639Z,20.90
2019-04-16T16:24:29.035Z,20.90
2019-04-16T16:26:58.521Z,20.80
2019-04-16T16:29:27.849Z,20.60
2019-04-16T16:31:57.229Z,20.30
2019-04-16T16:34:26.727Z,20.10
2019-04-16T16:36:56.285Z,19.90
2019-04-16T16:39:25.634Z,19.80
2019-04-16T16:41:54.973Z,19.60
2019-04-16T16:44:24.325Z,19.60
2019-04-16T16:47:15.916Z,19.40
2019-04-16T16:49:45.340Z,19.40
2019-04-16T16:52:36.653Z,19.30
2019-04-16T16:55:08.439Z,19.20
2019-04-16T16:57:43.190Z,19.10
2019-04-16T17:00:31.797Z,19.10
2019-04-16T17:03:25.631Z,18.90
2019-04-16T17:05:55.063Z,18.80
2019-04-16T17:08:27.037Z,18.70
2019-04-16T17:10:55.834Z,18.60
2019-04-16T17:13:25.306Z,18.40
2019-04-16T17:15:54.928Z,18.30
2019-04-16T17:18:24.364Z,18.00
2019-04-16T17:20:53.941Z,17.90
2019-04-16T17:23:25.565Z,17.70
2019-04-16T17:25:58.493Z,17.50
2019-04-16T17:28:26.912Z,17.40
2019-04-16T17:30:56.283Z,17.30
2019-04-16T17:33:25.712Z,17.20
2019-04-16T17:35:55.035Z,17.30
2019-04-16T17:38:24.430Z,17.30
2019-04-16T17:41:00.105Z,17.20
2019-04-16T17:44:00.532Z,17.10
2019-04-16T17:46:32.879Z,17.00
2019-04-16T17:49:08.996Z,16.90
2019-04-16T17:51:45.982Z,16.90
2019-04-16T17:54:49.451Z,16.80
2019-04-16T17:57:30.768Z,16.60
2019-04-16T18:00:37.672Z,16.50
2019-04-16T18:03:37.649Z,16.50
2019-04-16T18:06:18.384Z,16.30
2019-04-16T18:09:05.304Z,16.20
2019-04-16T18:11:44.748Z,16.10
2019-04-16T18:14:49.824Z,16.00
2019-04-16T18:17:27.981Z,16.00
2019-04-16T18:20:22.128Z,15.90
2019-04-16T18:23:09.018Z,15.80
2019-04-16T18:25:57.388Z,15.70
2019-04-16T18:28:31.162Z,15.60
2019-04-16T18:31:27.535Z,15.50
2019-04-16T18:34:10.144Z,15.50
2019-04-16T18:36:58.737Z,15.40
2019-04-16T18:39:37.445Z,15.30
2019-04-16T18:42:25.870Z,15.30
2019-04-16T18:45:32.378Z,15.30
2019-04-16T18:48:13.740Z,15.30
2019-04-16T18:50:42.876Z,15.20
2019-04-16T18:53:12.423Z,15.20
2019-04-16T18:55:41.807Z,15.10
2019-04-16T18:58:11.175Z,15.10
2019-04-16T19:00:48.274Z,15.10
2019-04-16T19:03:17.672Z,15.10
2019-04-16T19:05:47.019Z,15.10
2019-04-16T19:08:16.630Z,15.10
2019-04-16T19:10:46.202Z,15.10
2019-04-16T19:13:15.527Z,15.00
2019-04-16T19:15:44.952Z,15.00
2019-04-16T19:18:19.732Z,14.90
2019-04-16T19:20:45.442Z,14.90
2019-04-16T19:23:14.830Z,14.90
2019-04-16T19:25:44.197Z,14.90
2019-04-16T19:28:13.590Z,14.90
2019-04-16T19:30:43.057Z,14.90
2019-04-16T19:33:12.461Z,14.90
2019-04-16T19:35:41.883Z,14.80
2019-04-16T19:38:11.217Z,14.80
2019-04-16T19:40:40.640Z,14.80
2019-04-16T19:43:10.048Z,14.70
2019-04-16T19:45:40.658Z,14.70
2019-04-16T19:48:11.064Z,14.60
2019-04-16T19:50:40.462Z,14.60
2019-04-16T19:53:13.657Z,14.50
2019-04-16T19:55:45.613Z,14.50
2019-04-16T19:58:12.230Z,14.50
2019-04-16T20:00:41.825Z,14.40
2019-04-16T20:03:11.372Z,14.40
2019-04-16T20:05:40.773Z,14.30
2019-04-16T20:08:10.215Z,14.20
2019-04-16T20:10:39.535Z,14.20
2019-04-16T20:13:08.957Z,14.10
2019-04-16T20:15:43.228Z,14.10
2019-04-16T20:18:09.477Z,14.00
2019-04-16T20:20:38.868Z,14.00
2019-04-16T20:23:08.223Z,13.90
2019-04-16T20:25:37.639Z,13.90
2019-04-16T20:28:09.411Z,13.90
2019-04-16T20:30:38.146Z,13.80
2019-04-16T20:33:07.501Z,13.80
2019-04-16T20:35:36.910Z,13.70
2019-04-16T20:38:06.518Z,13.70
2019-04-16T20:40:36.047Z,13.60
2019-04-16T20:43:05.452Z,13.50
2019-04-16T20:45:34.832Z,13.50
2019-04-16T20:48:04.225Z,13.40
2019-04-16T20:50:33.560Z,13.30
2019-04-16T20:53:06.217Z,13.30
2019-04-16T20:55:34.015Z,13.20
2019-04-16T20:58:03.516Z,13.20
2019-04-16T21:00:34.054Z,13.10
2019-04-16T21:03:03.854Z,13.10
2019-04-16T21:05:35.760Z,13.00
2019-04-16T21:08:04.601Z,13.00
2019-04-16T21:10:35.644Z,13.00
2019-04-16T21:13:05.257Z,12.90
2019-04-16T21:15:34.651Z,12.80
2019-04-16T21:18:04.082Z,12.80
2019-04-16T21:20:33.507Z,12.80
2019-04-16T21:23:03.497Z,12.70
2019-04-16T21:25:33.293Z,12.70
2019-04-16T21:28:37.089Z,12.60
2019-04-16T21:31:18.241Z,12.60
2019-04-16T21:34:08.937Z,12.60
2019-04-16T21:36:57.224Z,12.50
2019-04-16T21:39:37.332Z,12.50
2019-04-16T21:42:06.691Z,12.50
2019-04-16T21:44:36.105Z,12.40
2019-04-16T21:47:05.612Z,12.40
2019-04-16T21:49:38.906Z,12.30
2019-04-16T21:52:08.839Z,12.30
2019-04-16T21:54:38.986Z,12.30
2019-04-16T21:57:09.476Z,12.20
2019-04-16T21:59:39.467Z,12.20
2019-04-16T22:02:14.455Z,12.20
2019-04-16T22:04:45.468Z,12.20
2019-04-16T22:07:14.816Z,12.20
2019-04-16T22:09:44.152Z,12.20
2019-04-16T22:12:15.433Z,12.20
2019-04-16T22:14:44.580Z,12.10
2019-04-16T22:17:13.985Z,12.10
2019-04-16T22:19:53.812Z,12.10
2019-04-16T22:22:15.774Z,12.00
2019-04-16T22:24:45.134Z,12.00
2019-04-16T22:27:14.505Z,12.00
2019-04-16T22:29:47.315Z,12.00
2019-04-16T22:32:14.984Z,12.00
2019-04-16T22:34:44.366Z,11.90
2019-04-16T22:37:13.746Z,11.90
2019-04-16T22:40:10.630Z,11.90
2019-04-16T22:42:49.225Z,11.80
2019-04-16T22:45:31.476Z,11.80
2019-04-16T22:48:01.014Z,11.80
2019-04-16T22:50:30.363Z,11.80
2019-04-16T22:52:59.689Z,11.80
2019-04-16T22:55:29.044Z,11.80
2019-04-16T22:57:59.853Z,11.80
2019-04-16T23:00:44.487Z,11.80
2019-04-16T23:03:13.572Z,11.80
2019-04-16T23:05:42.932Z,11.80
2019-04-16T23:08:13.075Z,11.80
2019-04-16T23:10:42.479Z,11.80
2019-04-16T23:13:11.812Z,11.80
2019-04-16T23:15:42.031Z,11.80
2019-04-16T23:18:11.456Z,11.80
2019-04-16T23:20:43.657Z,11.90
2019-04-16T23:23:17.868Z,11.90
2019-04-16T23:25:44.101Z,11.90
2019-04-16T23:28:13.394Z,11.90
2019-04-16T23:30:43.121Z,11.90
2019-04-16T23:33:12.476Z,12.00
2019-04-16T23:35:44.297Z,11.90
2019-04-16T23:38:12.882Z,12.00
2019-04-16T23:40:43.845Z,12.00
2019-04-16T23:43:23.976Z,12.10
2019-04-16T23:46:15.260Z,12.10
2019-04-16T23:49:09.541Z,12.20
2019-04-16T23:51:42.784Z,12.30
2019-04-16T23:54:21.875Z,12.40
2019-04-16T23:56:58.645Z,12.50
2019-04-16T23:59:52.918Z,12.50
